createdAt,value
2019-02-22T00:01:08.880Z,0
2019-02-22T00:02:18.334Z,0
2019-02-22T00:03:27.775Z,0
2019-02-22T00:04:37.210Z,0
2019-02-22T00:05:46.920Z,0
2019-02-22T00:06:56.614Z,0
2019-02-22T00:08:06.056Z,0
2019-02-22T00:09:15.755Z,0
2019-02-22T00:10:25.712Z,0
2019-02-22T00:11:35.759Z,0
2019-02-22T00:12:45.455Z,0
2019-02-22T00:13:54.907Z,0
2019-02-22T00:15:04.104Z,0
2019-02-22T00:16:13.557Z,0
2019-02-22T00:17:22.757Z,0
2019-02-22T00:18:31.946Z,0
2019-02-22T00:19:41.410Z,0
2019-02-22T00:20:50.852Z,0
2019-02-22T00:22:00.796Z,0
2019-02-22T00:23:10.503Z,0
2019-02-22T00:24:20.197Z,0
2019-02-22T00:25:29.639Z,0
2019-02-22T00:26:39.591Z,0
2019-02-22T00:27:49.539Z,0
2019-02-22T00:28:59.231Z,0
2019-02-22T00:30:09.214Z,0
2019-02-22T00:31:18.904Z,0
2019-02-22T00:32:28.591Z,0
2019-02-22T00:33:38.559Z,0
2019-02-22T00:34:48.153Z,0
2019-02-22T00:35:58.334Z,0
2019-02-22T00:37:08.199Z,0
2019-02-22T00:38:18.309Z,0
2019-02-22T00:39:28.013Z,0
2019-02-22T00:40:37.699Z,0
2019-02-22T00:41:47.143Z,0
2019-02-22T00:42:57.126Z,0
2019-02-22T00:44:06.589Z,0
2019-02-22T00:45:16.580Z,0
2019-02-22T00:46:26.274Z,0
2019-02-22T00:47:35.492Z,0
2019-02-22T00:48:45.452Z,0
2019-02-22T00:49:54.637Z,0
2019-02-22T00:51:04.083Z,0
2019-02-22T00:52:13.784Z,0
2019-02-22T00:53:23.475Z,0
2019-02-22T00:54:33.157Z,0
2019-02-22T00:55:43.122Z,0
2019-02-22T00:56:52.806Z,0
2019-02-22T00:58:02.551Z,0
2019-02-22T00:59:12.255Z,0
2019-02-22T01:00:21.452Z,0
2019-02-22T01:01:31.233Z,0
2019-02-22T01:02:40.923Z,0
2019-02-22T01:03:50.630Z,0
2019-02-22T01:04:59.837Z,0
2019-02-22T01:06:09.533Z,0
2019-02-22T01:07:19.225Z,0
2019-02-22T01:08:28.658Z,0
2019-02-22T01:09:38.600Z,0
2019-02-22T01:10:54.308Z,0
2019-02-22T01:12:03.508Z,0
2019-02-22T01:13:13.455Z,0
2019-02-22T01:14:22.897Z,0
2019-02-22T01:15:32.588Z,0
2019-02-22T01:16:42.283Z,0
2019-02-22T01:17:51.734Z,0
2019-02-22T01:19:01.703Z,0
2019-02-22T01:20:11.715Z,0
2019-02-22T01:21:21.669Z,0
2019-02-22T01:22:31.462Z,0
2019-02-22T01:23:41.155Z,0
2019-02-22T01:24:50.859Z,0
2019-02-22T01:26:00.578Z,0
2019-02-22T01:27:10.523Z,0
2019-02-22T01:28:20.471Z,0
2019-02-22T01:29:30.174Z,0
2019-02-22T01:30:40.123Z,0
2019-02-22T01:31:49.851Z,0
2019-02-22T01:32:59.904Z,0
2019-02-22T01:34:09.597Z,0
2019-02-22T01:35:19.634Z,0
2019-02-22T01:36:29.099Z,0
2019-02-22T01:37:38.557Z,0
2019-02-22T01:38:47.995Z,0
2019-02-22T01:39:57.949Z,0
2019-02-22T01:41:07.734Z,0
2019-02-22T01:42:17.424Z,0
2019-02-22T01:43:27.365Z,0
2019-02-22T01:44:37.330Z,0
2019-02-22T01:45:47.034Z,0
2019-02-22T01:46:56.973Z,0
2019-02-22T01:48:06.911Z,0
2019-02-22T01:49:16.356Z,0
2019-02-22T01:50:26.306Z,0
2019-02-22T01:51:35.498Z,0
2019-02-22T01:52:45.193Z,0
2019-02-22T01:53:56.544Z,0
2019-02-22T01:55:06.289Z,0
2019-02-22T01:56:16.255Z,0
2019-02-22T01:57:25.738Z,0
2019-02-22T01:58:35.690Z,0
2019-02-22T01:59:55.870Z,0
2019-02-22T02:01:05.569Z,0
2019-02-22T02:02:15.042Z,0
2019-02-22T02:03:25.009Z,0
2019-02-22T02:04:34.963Z,0
2019-02-22T02:05:44.657Z,0
2019-02-22T02:06:54.602Z,0
2019-02-22T02:08:03.301Z,0
2019-02-22T02:09:12.993Z,0
2019-02-22T02:10:22.687Z,0
2019-02-22T02:11:31.628Z,0
2019-02-22T02:12:41.569Z,0
2019-02-22T02:13:51.348Z,0
2019-02-22T02:15:00.784Z,0
2019-02-22T02:16:10.723Z,0
2019-02-22T02:17:22.610Z,0
2019-02-22T02:18:32.554Z,0
2019-02-22T02:19:42.521Z,0
2019-02-22T02:20:52.332Z,0
2019-02-22T02:22:02.324Z,0
2019-02-22T02:23:12.109Z,0
2019-02-22T02:24:22.068Z,0
2019-02-22T02:25:31.746Z,0
2019-02-22T02:26:41.707Z,0
2019-02-22T02:27:51.164Z,0
2019-02-22T02:29:01.106Z,0
2019-02-22T02:30:11.071Z,0
2019-02-22T02:31:21.117Z,0
2019-02-22T02:32:30.823Z,0
2019-02-22T02:33:40.521Z,0
2019-02-22T02:34:50.471Z,0
2019-02-22T02:36:00.176Z,0
2019-02-22T02:37:09.882Z,0
2019-02-22T02:38:19.832Z,0
2019-02-22T02:39:29.782Z,0
2019-02-22T02:40:39.580Z,0
2019-02-22T02:41:49.557Z,0
2019-02-22T02:42:59.522Z,0
2019-02-22T02:44:09.549Z,0
2019-02-22T02:45:19.350Z,0
2019-02-22T02:46:29.297Z,0
2019-02-22T02:47:39.254Z,0
2019-02-22T02:48:48.950Z,0
2019-02-22T02:49:58.887Z,0
2019-02-22T02:51:08.581Z,0
2019-02-22T02:52:18.537Z,0
2019-02-22T02:53:28.532Z,0
2019-02-22T02:54:38.226Z,0
2019-02-22T02:55:48.172Z,0
2019-02-22T02:56:57.877Z,0
2019-02-22T02:58:07.606Z,0
2019-02-22T02:59:17.049Z,0
2019-02-22T03:00:27.026Z,0
2019-02-22T03:01:36.985Z,0
2019-02-22T03:02:46.946Z,0
2019-02-22T03:03:56.430Z,0
2019-02-22T03:05:06.180Z,0
2019-02-22T03:06:15.644Z,0
2019-02-22T03:07:25.348Z,0
2019-02-22T03:08:35.049Z,0
2019-02-22T03:09:44.774Z,0
2019-02-22T03:10:54.494Z,0
2019-02-22T03:12:04.224Z,0
2019-02-22T03:13:13.447Z,0
2019-02-22T03:14:22.909Z,0
2019-02-22T03:15:32.653Z,0
2019-02-22T03:16:42.102Z,0
2019-02-22T03:17:51.793Z,0
2019-02-22T03:19:01.494Z,0
2019-02-22T03:20:11.463Z,0
2019-02-22T03:21:21.183Z,0
2019-02-22T03:22:30.653Z,0
2019-02-22T03:23:40.603Z,0
2019-02-22T03:24:53.578Z,0
2019-02-22T03:26:03.376Z,0
2019-02-22T03:27:13.390Z,0
2019-02-22T03:28:23.344Z,0
2019-02-22T03:29:33.044Z,0
2019-02-22T03:30:42.785Z,0
2019-02-22T03:31:52.825Z,0
2019-02-22T03:33:02.798Z,0
2019-02-22T03:34:12.625Z,0
2019-02-22T03:35:22.322Z,0
2019-02-22T03:36:32.289Z,0
2019-02-22T03:37:41.985Z,0
2019-02-22T03:38:51.944Z,0
2019-02-22T03:40:01.884Z,0
2019-02-22T03:41:11.339Z,0
2019-02-22T03:42:21.295Z,0
2019-02-22T03:43:31.237Z,0
2019-02-22T03:44:40.948Z,0
2019-02-22T03:45:50.395Z,0
2019-02-22T03:47:00.360Z,0
2019-02-22T03:48:10.330Z,0
2019-02-22T03:49:19.873Z,0
2019-02-22T03:50:29.565Z,0
2019-02-22T03:51:38.778Z,0
2019-02-22T03:52:48.469Z,0
2019-02-22T03:54:00.042Z,0
2019-02-22T03:55:09.779Z,0
2019-02-22T03:56:19.761Z,0
2019-02-22T03:57:29.724Z,0
2019-02-22T03:58:39.439Z,0
2019-02-22T03:59:51.132Z,0
2019-02-22T04:01:01.049Z,0
2019-02-22T04:02:11.023Z,0
2019-02-22T04:03:20.734Z,0
2019-02-22T04:04:30.712Z,0
2019-02-22T04:05:40.670Z,0
2019-02-22T04:06:50.372Z,0
2019-02-22T04:08:00.326Z,0
2019-02-22T04:09:10.093Z,0
2019-02-22T04:10:20.050Z,0
2019-02-22T04:11:30.006Z,0
2019-02-22T04:12:52.594Z,0
2019-02-22T04:14:02.290Z,0
2019-02-22T04:15:11.761Z,0
2019-02-22T04:16:21.723Z,0
2019-02-22T04:17:31.245Z,0
2019-02-22T04:18:41.207Z,0
2019-02-22T04:19:51.154Z,0
2019-02-22T04:21:01.107Z,0
2019-02-22T04:22:11.060Z,0
2019-02-22T04:23:21.130Z,0
2019-02-22T04:24:30.840Z,0
2019-02-22T04:25:40.844Z,0
2019-02-22T04:26:50.563Z,0
2019-02-22T04:28:00.300Z,0
2019-02-22T04:29:09.770Z,0
2019-02-22T04:30:19.469Z,0
2019-02-22T04:31:29.184Z,0
2019-02-22T04:32:38.920Z,0
2019-02-22T04:33:48.685Z,0
2019-02-22T04:34:58.634Z,0
2019-02-22T04:36:08.658Z,0
2019-02-22T04:37:18.626Z,0
2019-02-22T04:38:28.080Z,0
2019-02-22T04:39:37.779Z,0
2019-02-22T04:40:47.727Z,0
2019-02-22T04:42:05.425Z,0
2019-02-22T04:43:14.868Z,0
2019-02-22T04:44:24.566Z,0
2019-02-22T04:45:34.521Z,0
2019-02-22T04:46:44.556Z,0
2019-02-22T04:47:54.491Z,0
2019-02-22T04:49:04.347Z,0
2019-02-22T04:50:13.822Z,0
2019-02-22T04:51:23.777Z,0
2019-02-22T04:52:33.481Z,0
2019-02-22T04:53:43.195Z,0
2019-02-22T04:54:52.907Z,0
2019-02-22T04:56:02.386Z,0
2019-02-22T04:57:12.119Z,0
2019-02-22T04:58:22.174Z,0
2019-02-22T04:59:31.902Z,0
2019-02-22T05:00:41.858Z,0
2019-02-22T05:01:51.928Z,0
2019-02-22T05:03:01.873Z,0
2019-02-22T05:04:11.811Z,0
2019-02-22T05:05:21.263Z,0
2019-02-22T05:06:31.205Z,0
2019-02-22T05:07:41.159Z,0
2019-02-22T05:08:51.112Z,0
2019-02-22T05:10:00.556Z,0
2019-02-22T05:11:10.509Z,0
2019-02-22T05:12:20.194Z,0
2019-02-22T05:13:30.126Z,0
2019-02-22T05:14:39.858Z,0
2019-02-22T05:15:49.801Z,0
2019-02-22T05:16:59.521Z,0
2019-02-22T05:18:09.462Z,0
2019-02-22T05:19:19.408Z,0
2019-02-22T05:20:29.428Z,0
2019-02-22T05:21:38.885Z,0
2019-02-22T05:22:48.579Z,0
2019-02-22T05:24:10.722Z,0
2019-02-22T05:25:20.419Z,0
2019-02-22T05:26:30.104Z,0
2019-02-22T05:27:39.817Z,0
2019-02-22T05:28:49.753Z,0
2019-02-22T05:29:59.202Z,0
2019-02-22T05:31:09.212Z,0
2019-02-22T05:32:18.669Z,0
2019-02-22T05:33:28.114Z,0
2019-02-22T05:34:38.116Z,0
2019-02-22T05:35:47.825Z,0
2019-02-22T05:36:57.782Z,0
2019-02-22T05:38:07.743Z,0
2019-02-22T05:39:26.354Z,0
2019-02-22T05:40:36.047Z,0
2019-02-22T05:41:45.759Z,0
2019-02-22T05:42:55.286Z,0
2019-02-22T05:44:05.281Z,0
2019-02-22T05:45:15.288Z,0
2019-02-22T05:46:25.250Z,0
2019-02-22T05:47:34.690Z,0
2019-02-22T05:48:46.121Z,0
2019-02-22T05:49:55.853Z,0
2019-02-22T05:51:05.600Z,0
2019-02-22T05:52:15.662Z,0
2019-02-22T05:53:25.636Z,0
2019-02-22T05:54:35.335Z,0
2019-02-22T05:55:46.759Z,0
2019-02-22T05:56:59.580Z,0
2019-02-22T05:58:09.586Z,0
2019-02-22T05:59:19.570Z,0
2019-02-22T06:00:29.287Z,0
2019-02-22T06:01:39.339Z,0
2019-02-22T06:02:49.047Z,0
2019-02-22T06:03:58.756Z,0
2019-02-22T06:05:08.218Z,0
2019-02-22T06:06:17.683Z,0
2019-02-22T06:07:27.668Z,0
2019-02-22T06:08:37.490Z,0
2019-02-22T06:09:47.212Z,0
2019-02-22T06:10:57.166Z,0
2019-02-22T06:12:07.128Z,0
2019-02-22T06:13:16.846Z,0
2019-02-22T06:14:26.305Z,0
2019-02-22T06:15:38.663Z,0
2019-02-22T06:16:48.105Z,0
2019-02-22T06:17:58.343Z,0
2019-02-22T06:19:08.313Z,0
2019-02-22T06:20:18.290Z,0
2019-02-22T06:21:27.748Z,0
2019-02-22T06:22:37.198Z,0
2019-02-22T06:23:47.230Z,0
2019-02-22T06:24:56.936Z,0
2019-02-22T06:26:06.565Z,0
2019-02-22T06:27:16.215Z,0
2019-02-22T06:28:25.901Z,0
2019-02-22T06:29:35.597Z,0
2019-02-22T06:30:45.368Z,0
2019-02-22T06:31:55.617Z,0
2019-02-22T06:33:04.840Z,0
2019-02-22T06:34:14.551Z,0
2019-02-22T06:35:24.253Z,0
2019-02-22T06:36:33.449Z,0
2019-02-22T06:37:42.911Z,0
2019-02-22T06:38:53.987Z,0
2019-02-22T06:40:03.686Z,0
2019-02-22T06:41:13.665Z,0
2019-02-22T06:42:23.607Z,0
2019-02-22T06:43:33.067Z,0
2019-02-22T06:44:42.765Z,0
2019-02-22T06:45:52.360Z,0
2019-02-22T06:47:02.137Z,0
2019-02-22T06:48:11.834Z,0
2019-02-22T06:49:21.288Z,0
2019-02-22T06:50:40.601Z,0
2019-02-22T06:51:50.606Z,0
2019-02-22T06:53:00.129Z,0
2019-02-22T06:54:09.829Z,0
2019-02-22T06:55:19.812Z,0
2019-02-22T06:56:31.509Z,0
2019-02-22T06:57:41.574Z,0
2019-02-22T06:58:51.811Z,0
2019-02-22T07:00:01.509Z,0
2019-02-22T07:01:11.480Z,0
2019-02-22T07:02:21.188Z,0
2019-02-22T07:03:31.134Z,4
2019-02-22T07:04:40.855Z,24
2019-02-22T07:05:50.631Z,24
2019-02-22T07:07:00.105Z,24
2019-02-22T07:08:09.588Z,24
2019-02-22T07:09:19.285Z,28
2019-02-22T07:10:28.733Z,28
2019-02-22T07:11:40.371Z,28
2019-02-22T07:13:01.470Z,24
2019-02-22T07:14:10.914Z,24
2019-02-22T07:15:20.367Z,28
2019-02-22T07:16:30.320Z,24
2019-02-22T07:17:39.761Z,24
2019-02-22T07:18:49.955Z,28
2019-02-22T07:19:59.968Z,28
2019-02-22T07:21:09.940Z,24
2019-02-22T07:22:19.634Z,28
2019-02-22T07:23:28.828Z,28
2019-02-22T07:24:38.541Z,28
2019-02-22T07:25:48.501Z,24
2019-02-22T07:26:57.700Z,24
2019-02-22T07:28:07.142Z,28
2019-02-22T07:29:16.601Z,24
2019-02-22T07:30:26.048Z,24
2019-02-22T07:31:36.002Z,24
2019-02-22T07:32:46.359Z,24
2019-02-22T07:33:56.110Z,24
2019-02-22T07:35:05.807Z,24
2019-02-22T07:36:17.573Z,28
2019-02-22T07:37:27.525Z,24
2019-02-22T07:38:37.223Z,24
2019-02-22T07:39:47.166Z,28
2019-02-22T07:40:56.366Z,40
2019-02-22T07:42:06.067Z,36
2019-02-22T07:43:16.008Z,32
2019-02-22T07:44:25.704Z,32
2019-02-22T07:45:35.652Z,24
2019-02-22T07:46:44.844Z,28
2019-02-22T07:47:54.309Z,24
2019-02-22T07:49:04.080Z,20
2019-02-22T07:50:14.075Z,24
2019-02-22T07:51:24.018Z,16
2019-02-22T07:52:33.465Z,20
2019-02-22T07:53:43.426Z,24
2019-02-22T07:54:53.118Z,20
2019-02-22T07:56:02.472Z,28
2019-02-22T07:57:12.416Z,24
2019-02-22T07:58:22.444Z,24
2019-02-22T07:59:31.933Z,20
2019-02-22T08:00:41.897Z,20
2019-02-22T08:01:55.275Z,24
2019-02-22T08:03:05.214Z,16
2019-02-22T08:04:14.417Z,12
2019-02-22T08:05:24.126Z,16
2019-02-22T08:06:34.139Z,12
2019-02-22T08:07:44.193Z,12
2019-02-22T08:08:55.096Z,8
2019-02-22T08:10:04.856Z,12
2019-02-22T08:11:14.566Z,8
2019-02-22T08:12:24.518Z,16
2019-02-22T08:13:33.984Z,24
2019-02-22T08:14:43.439Z,24
2019-02-22T08:15:53.382Z,28
2019-02-22T08:17:03.099Z,32
2019-02-22T08:18:12.783Z,36
2019-02-22T08:19:22.218Z,32
2019-02-22T08:20:31.912Z,36
2019-02-22T08:21:41.853Z,32
2019-02-22T08:22:51.558Z,32
2019-02-22T08:24:01.516Z,36
2019-02-22T08:25:11.470Z,40
2019-02-22T08:26:21.180Z,36
2019-02-22T08:27:30.869Z,32
2019-02-22T08:28:40.569Z,32
2019-02-22T08:29:50.019Z,32
2019-02-22T08:30:59.761Z,36
2019-02-22T08:32:09.209Z,40
2019-02-22T08:33:19.180Z,40
2019-02-22T08:34:28.881Z,36
2019-02-22T08:35:38.853Z,36
2019-02-22T08:36:48.308Z,32
2019-02-22T08:37:58.019Z,36
2019-02-22T08:39:07.791Z,32
2019-02-22T08:40:17.493Z,32
2019-02-22T08:41:27.008Z,32
2019-02-22T08:42:36.468Z,32
2019-02-22T08:43:45.927Z,28
2019-02-22T08:44:56.090Z,24
2019-02-22T08:46:06.038Z,24
2019-02-22T08:47:15.491Z,24
2019-02-22T08:48:25.436Z,24
2019-02-22T08:49:34.944Z,24
2019-02-22T08:50:44.635Z,24
2019-02-22T08:51:54.580Z,24
2019-02-22T08:53:04.294Z,24
2019-02-22T08:54:14.248Z,32
2019-02-22T08:55:23.976Z,32
2019-02-22T08:56:33.679Z,36
2019-02-22T08:57:43.131Z,40
2019-02-22T08:58:52.827Z,44
2019-02-22T09:00:02.806Z,44
2019-02-22T09:01:12.007Z,44
2019-02-22T09:02:21.459Z,48
2019-02-22T09:03:30.910Z,36
2019-02-22T09:04:40.385Z,28
2019-02-22T09:05:50.541Z,28
2019-02-22T09:07:00.234Z,36
2019-02-22T09:08:09.922Z,40
2019-02-22T09:09:19.882Z,44
2019-02-22T09:10:29.676Z,56
2019-02-22T09:11:39.366Z,52
2019-02-22T09:12:49.539Z,56
2019-02-22T09:13:58.988Z,56
2019-02-22T09:15:08.935Z,60
2019-02-22T09:16:18.870Z,52
2019-02-22T09:17:28.814Z,52
2019-02-22T09:18:38.303Z,52
2019-02-22T09:19:48.000Z,52
2019-02-22T09:20:57.700Z,48
2019-02-22T09:22:07.404Z,40
2019-02-22T09:23:17.128Z,40
2019-02-22T09:24:27.102Z,40
2019-02-22T09:25:36.793Z,40
2019-02-22T09:26:46.764Z,44
2019-02-22T09:27:56.778Z,44
2019-02-22T09:29:06.469Z,48
2019-02-22T09:30:16.165Z,48
2019-02-22T09:31:25.610Z,52
2019-02-22T09:32:35.546Z,48
2019-02-22T09:33:45.401Z,56
2019-02-22T09:34:55.632Z,56
2019-02-22T09:36:05.079Z,56
2019-02-22T09:37:15.050Z,52
2019-02-22T09:38:24.493Z,52
2019-02-22T09:39:34.545Z,64
2019-02-22T09:40:44.505Z,56
2019-02-22T09:41:54.483Z,68
2019-02-22T09:43:04.174Z,76
2019-02-22T09:44:13.874Z,72
2019-02-22T09:45:24.628Z,64
2019-02-22T09:46:34.448Z,68
2019-02-22T09:47:44.154Z,68
2019-02-22T09:48:54.211Z,44
2019-02-22T09:50:03.908Z,40
2019-02-22T09:51:13.345Z,44
2019-02-22T09:52:23.049Z,52
2019-02-22T09:53:32.488Z,68
2019-02-22T09:54:42.222Z,48
2019-02-22T09:55:51.922Z,40
2019-02-22T09:57:04.348Z,52
2019-02-22T09:58:14.068Z,72
2019-02-22T09:59:23.765Z,44
2019-02-22T10:00:32.954Z,48
2019-02-22T10:01:42.902Z,40
2019-02-22T10:02:52.590Z,36
2019-02-22T10:04:02.288Z,36
2019-02-22T10:05:11.996Z,32
2019-02-22T10:06:21.704Z,40
2019-02-22T10:07:31.410Z,36
2019-02-22T10:08:41.113Z,36
2019-02-22T10:09:50.803Z,36
2019-02-22T10:11:00.736Z,36
2019-02-22T10:12:10.438Z,32
2019-02-22T10:13:19.878Z,36
2019-02-22T10:14:31.015Z,36
2019-02-22T10:15:40.456Z,44
2019-02-22T10:16:50.452Z,44
2019-02-22T10:18:00.391Z,48
2019-02-22T10:19:09.586Z,40
2019-02-22T10:20:19.049Z,48
2019-02-22T10:21:28.241Z,48
2019-02-22T10:22:37.937Z,48
2019-02-22T10:23:47.631Z,52
2019-02-22T10:24:57.566Z,52
2019-02-22T10:26:07.513Z,56
2019-02-22T10:27:19.388Z,48
2019-02-22T10:28:29.390Z,48
2019-02-22T10:29:39.088Z,44
2019-02-22T10:30:48.798Z,52
2019-02-22T10:31:58.234Z,52
2019-02-22T10:33:07.934Z,48
2019-02-22T10:34:17.875Z,60
2019-02-22T10:35:27.584Z,64
2019-02-22T10:36:47.540Z,68
2019-02-22T10:37:57.250Z,84
2019-02-22T10:39:08.519Z,88
2019-02-22T10:40:18.464Z,92
2019-02-22T10:41:28.419Z,76
2019-02-22T10:42:38.105Z,76
2019-02-22T10:43:47.309Z,68
2019-02-22T10:44:56.756Z,64
2019-02-22T10:46:06.692Z,64
2019-02-22T10:47:16.393Z,64
2019-02-22T10:48:26.084Z,56
2019-02-22T10:49:35.781Z,56
2019-02-22T10:50:45.723Z,60
2019-02-22T10:51:55.466Z,56
2019-02-22T10:53:09.218Z,60
2019-02-22T10:54:19.238Z,64
2019-02-22T10:55:28.937Z,72
2019-02-22T10:56:39.345Z,72
2019-02-22T10:57:49.762Z,80
2019-02-22T10:58:59.262Z,84
2019-02-22T11:00:08.727Z,72
2019-02-22T11:01:18.421Z,76
2019-02-22T11:02:27.856Z,84
2019-02-22T11:03:39.068Z,92
2019-02-22T11:04:49.014Z,100
2019-02-22T11:05:58.481Z,96
2019-02-22T11:07:08.196Z,100
2019-02-22T11:08:18.152Z,104
2019-02-22T11:09:27.595Z,104
2019-02-22T11:10:37.045Z,112
2019-02-22T11:11:46.486Z,116
2019-02-22T11:12:56.195Z,112
2019-02-22T11:14:05.886Z,108
2019-02-22T11:15:15.408Z,96
2019-02-22T11:16:25.372Z,104
2019-02-22T11:17:35.350Z,116
2019-02-22T11:18:46.694Z,116
2019-02-22T11:19:56.661Z,116
2019-02-22T11:21:06.104Z,116
2019-02-22T11:22:16.063Z,112
2019-02-22T11:23:26.013Z,104
2019-02-22T11:24:35.701Z,104
2019-02-22T11:25:45.650Z,112
2019-02-22T11:26:55.651Z,124
2019-02-22T11:28:05.334Z,120
2019-02-22T11:29:14.813Z,120
2019-02-22T11:30:24.793Z,116
2019-02-22T11:31:34.248Z,116
2019-02-22T11:32:44.216Z,116
2019-02-22T11:33:53.928Z,120
2019-02-22T11:35:03.876Z,120
2019-02-22T11:36:13.082Z,112
2019-02-22T11:37:23.033Z,108
2019-02-22T11:38:32.470Z,108
2019-02-22T11:39:42.158Z,96
2019-02-22T11:40:52.112Z,92
2019-02-22T11:42:02.051Z,88
2019-02-22T11:43:11.737Z,104
2019-02-22T11:44:21.673Z,108
2019-02-22T11:45:31.355Z,112
2019-02-22T11:46:41.296Z,112
2019-02-22T11:47:50.735Z,116
2019-02-22T11:48:59.943Z,112
2019-02-22T11:50:09.758Z,112
2019-02-22T11:51:19.231Z,108
2019-02-22T11:52:28.690Z,112
2019-02-22T11:53:38.626Z,104
2019-02-22T11:54:48.195Z,108
2019-02-22T11:55:58.181Z,108
2019-02-22T11:57:08.135Z,104
2019-02-22T11:58:18.079Z,104
2019-02-22T11:59:27.773Z,104
2019-02-22T12:00:37.478Z,88
2019-02-22T12:01:47.421Z,88
2019-02-22T12:02:57.357Z,84
2019-02-22T12:04:23.147Z,84
2019-02-22T12:05:33.096Z,88
2019-02-22T12:06:42.806Z,88
2019-02-22T12:07:52.986Z,76
2019-02-22T12:09:02.749Z,72
2019-02-22T12:10:12.708Z,84
2019-02-22T12:11:22.671Z,92
2019-02-22T12:12:32.369Z,108
2019-02-22T12:13:42.062Z,116
2019-02-22T12:14:59.268Z,120
2019-02-22T12:16:08.985Z,116
2019-02-22T12:17:18.695Z,108
2019-02-22T12:18:28.401Z,104
2019-02-22T12:19:38.089Z,112
2019-02-22T12:20:48.215Z,112
2019-02-22T12:21:58.211Z,104
2019-02-22T12:23:07.920Z,104
2019-02-22T12:24:17.863Z,104
2019-02-22T12:25:28.072Z,108
2019-02-22T12:26:39.166Z,112
2019-02-22T12:27:49.146Z,116
2019-02-22T12:28:59.090Z,128
2019-02-22T12:30:09.056Z,144
2019-02-22T12:31:18.766Z,136
2019-02-22T12:32:28.462Z,132
2019-02-22T12:33:37.670Z,128
2019-02-22T12:34:47.384Z,120
2019-02-22T12:35:57.075Z,112
2019-02-22T12:37:06.871Z,104
2019-02-22T12:38:16.821Z,104
2019-02-22T12:39:26.407Z,96
2019-02-22T12:40:36.368Z,88
2019-02-22T12:41:46.076Z,96
2019-02-22T12:42:56.017Z,92
2019-02-22T12:44:07.151Z,92
2019-02-22T12:45:17.102Z,88
2019-02-22T12:46:26.878Z,88
2019-02-22T12:47:36.571Z,88
2019-02-22T12:48:46.529Z,92
2019-02-22T12:49:56.228Z,92
2019-02-22T12:51:06.235Z,96
2019-02-22T12:52:15.960Z,96
2019-02-22T12:53:25.906Z,100
2019-02-22T12:54:35.367Z,104
2019-02-22T12:55:45.068Z,104
2019-02-22T12:57:04.727Z,112
2019-02-22T12:58:14.185Z,120
2019-02-22T12:59:23.881Z,124
2019-02-22T13:00:33.326Z,124
2019-02-22T13:01:43.033Z,132
2019-02-22T13:03:03.867Z,136
2019-02-22T13:04:13.354Z,140
2019-02-22T13:05:23.342Z,132
2019-02-22T13:06:33.046Z,136
2019-02-22T13:07:42.503Z,140
2019-02-22T13:08:52.235Z,140
2019-02-22T13:10:02.180Z,144
2019-02-22T13:11:11.637Z,148
2019-02-22T13:12:24.189Z,156
2019-02-22T13:13:33.880Z,160
2019-02-22T13:14:43.825Z,156
2019-02-22T13:15:53.766Z,152
2019-02-22T13:17:03.800Z,152
2019-02-22T13:18:13.753Z,148
2019-02-22T13:19:23.455Z,144
2019-02-22T13:20:33.059Z,140
2019-02-22T13:21:42.282Z,132
2019-02-22T13:22:52.232Z,136
2019-02-22T13:24:04.556Z,128
2019-02-22T13:25:14.585Z,124
2019-02-22T13:26:24.503Z,120
2019-02-22T13:27:33.718Z,116
2019-02-22T13:28:43.444Z,116
2019-02-22T13:29:52.782Z,112
2019-02-22T13:31:02.740Z,112
2019-02-22T13:32:12.518Z,108
2019-02-22T13:33:22.231Z,112
2019-02-22T13:34:31.930Z,116
2019-02-22T13:35:41.942Z,120
2019-02-22T13:36:51.994Z,116
2019-02-22T13:38:01.940Z,108
2019-02-22T13:39:11.658Z,108
2019-02-22T13:40:21.363Z,104
2019-02-22T13:41:31.081Z,100
2019-02-22T13:42:40.768Z,104
2019-02-22T13:43:50.555Z,108
2019-02-22T13:45:00.493Z,112
2019-02-22T13:46:09.694Z,108
2019-02-22T13:47:19.654Z,108
2019-02-22T13:48:29.594Z,104
2019-02-22T13:49:39.361Z,104
2019-02-22T13:50:48.918Z,104
2019-02-22T13:51:58.877Z,104
2019-02-22T13:53:08.578Z,100
2019-02-22T13:54:18.094Z,104
2019-02-22T13:55:28.077Z,96
2019-02-22T13:56:37.540Z,92
2019-02-22T13:57:47.490Z,88
2019-02-22T13:58:56.949Z,88
2019-02-22T14:00:06.891Z,84
2019-02-22T14:01:16.827Z,84
2019-02-22T14:02:26.516Z,88
2019-02-22T14:03:36.458Z,88
2019-02-22T14:04:46.417Z,88
2019-02-22T14:05:56.361Z,84
2019-02-22T14:07:06.060Z,84
2019-02-22T14:08:15.622Z,840
2019-02-22T14:09:25.095Z,1536
2019-02-22T14:10:34.551Z,1668
2019-02-22T14:11:44.246Z,1592
2019-02-22T14:12:54.284Z,1596
2019-02-22T14:14:04.259Z,1568
2019-02-22T14:15:14.193Z,1544
2019-02-22T14:16:26.206Z,1544
2019-02-22T14:17:36.166Z,1568
2019-02-22T14:18:45.618Z,1620
2019-02-22T14:19:55.616Z,1744
2019-02-22T14:21:05.563Z,1772
2019-02-22T14:22:15.011Z,1788
2019-02-22T14:23:24.534Z,1836
2019-02-22T14:24:33.979Z,1940
2019-02-22T14:25:43.681Z,1856
2019-02-22T14:26:53.635Z,1804
2019-02-22T14:28:03.084Z,1788
2019-02-22T14:29:12.788Z,1932
2019-02-22T14:30:22.736Z,2112
2019-02-22T14:31:32.254Z,2192
2019-02-22T14:32:41.696Z,2012
2019-02-22T14:33:51.395Z,1932
2019-02-22T14:35:00.828Z,1932
2019-02-22T14:36:10.658Z,1744
2019-02-22T14:37:20.609Z,1632
2019-02-22T14:38:30.969Z,1612
2019-02-22T14:39:43.685Z,1628
2019-02-22T14:40:53.626Z,1672
2019-02-22T14:42:03.581Z,1704
2019-02-22T14:43:23.735Z,1712
2019-02-22T14:44:33.680Z,1760
2019-02-22T14:45:55.639Z,1856
2019-02-22T14:47:05.585Z,1892
2019-02-22T14:48:15.276Z,2044
2019-02-22T14:49:24.963Z,1920
2019-02-22T14:50:34.412Z,1908
2019-02-22T14:51:43.855Z,1852
2019-02-22T14:52:53.562Z,1884
2019-02-22T14:54:03.505Z,1936
2019-02-22T14:55:13.451Z,1856
2019-02-22T14:56:23.157Z,1740
2019-02-22T14:57:32.350Z,1724
2019-02-22T14:58:43.377Z,1596
2019-02-22T14:59:53.797Z,1536
2019-02-22T15:01:03.496Z,1536
2019-02-22T15:02:13.192Z,1700
2019-02-22T15:03:23.139Z,1804
2019-02-22T15:04:33.081Z,1940
2019-02-22T15:05:43.222Z,2088
2019-02-22T15:06:53.167Z,2284
2019-02-22T15:08:02.613Z,2392
2019-02-22T15:09:12.555Z,2304
2019-02-22T15:10:23.494Z,2224
2019-02-22T15:11:33.756Z,2140
2019-02-22T15:12:43.470Z,1936
2019-02-22T15:13:52.934Z,1784
2019-02-22T15:15:02.716Z,1672
2019-02-22T15:16:12.693Z,1580
2019-02-22T15:17:22.161Z,1476
2019-02-22T15:18:34.742Z,1384
2019-02-22T15:19:44.462Z,1256
2019-02-22T15:20:54.177Z,1216
2019-02-22T15:22:05.756Z,1216
2019-02-22T15:23:15.510Z,1324
2019-02-22T15:24:24.952Z,1280
2019-02-22T15:25:34.404Z,1168
2019-02-22T15:26:44.347Z,1232
2019-02-22T15:27:54.419Z,1512
2019-02-22T15:29:04.367Z,1512
2019-02-22T15:30:14.461Z,1416
2019-02-22T15:31:23.922Z,1364
2019-02-22T15:32:43.588Z,1376
2019-02-22T15:33:53.299Z,1416
2019-02-22T15:35:05.076Z,1340
2019-02-22T15:36:16.031Z,1248
2019-02-22T15:37:26.255Z,1316
2019-02-22T15:38:37.168Z,1412
2019-02-22T15:39:47.184Z,1484
2019-02-22T15:40:57.278Z,1440
2019-02-22T15:42:06.792Z,1396
2019-02-22T15:43:16.878Z,1312
2019-02-22T15:44:26.372Z,1172
2019-02-22T15:45:36.126Z,1084
2019-02-22T15:46:46.181Z,964
2019-02-22T15:47:56.408Z,792
2019-02-22T15:49:06.193Z,644
2019-02-22T15:50:16.242Z,580
2019-02-22T15:51:25.704Z,608
2019-02-22T15:52:35.411Z,744
2019-02-22T15:53:46.570Z,840
2019-02-22T15:54:56.551Z,824
2019-02-22T15:56:05.993Z,780
2019-02-22T15:57:15.445Z,828
2019-02-22T15:58:25.150Z,696
2019-02-22T15:59:34.849Z,660
2019-02-22T16:00:44.789Z,564
2019-02-22T16:02:02.416Z,508
2019-02-22T16:03:12.375Z,516
2019-02-22T16:04:22.330Z,556
2019-02-22T16:05:32.294Z,560
2019-02-22T16:06:41.989Z,524
2019-02-22T16:07:52.020Z,504
2019-02-22T16:09:01.718Z,492
2019-02-22T16:10:11.240Z,496
2019-02-22T16:11:21.174Z,464
2019-02-22T16:12:30.903Z,452
2019-02-22T16:13:41.123Z,460
2019-02-22T16:14:51.252Z,444
2019-02-22T16:16:00.975Z,456
2019-02-22T16:17:10.670Z,464
2019-02-22T16:18:20.116Z,424
2019-02-22T16:19:29.814Z,420
2019-02-22T16:20:39.529Z,460
2019-02-22T16:21:49.447Z,464
2019-02-22T16:22:59.178Z,412
2019-02-22T16:24:08.639Z,392
2019-02-22T16:25:26.342Z,388
2019-02-22T16:26:36.375Z,352
2019-02-22T16:27:45.863Z,320
2019-02-22T16:28:55.585Z,312
2019-02-22T16:30:05.546Z,308
2019-02-22T16:31:15.237Z,296
2019-02-22T16:32:25.210Z,272
2019-02-22T16:33:35.165Z,244
2019-02-22T16:34:51.666Z,224
2019-02-22T16:36:01.668Z,204
2019-02-22T16:37:11.677Z,180
2019-02-22T16:38:21.385Z,160
2019-02-22T16:39:31.114Z,144
2019-02-22T16:40:41.073Z,132